createdAt,value
2022-10-27T00:00:56.072Z,10.90
2022-10-27T00:03:23.350Z,10.90
2022-10-27T00:05:50.583Z,10.90
2022-10-27T00:08:21.170Z,11.00
2022-10-27T00:11:03.743Z,11.00
2022-10-27T00:13:31.478Z,11.10
2022-10-27T00:16:09.791Z,11.20
2022-10-27T00:18:36.926Z,11.30
2022-10-27T00:21:10.789Z,11.40
2022-10-27T00:23:38.651Z,11.50
2022-10-27T00:26:08.616Z,11.60
2022-10-27T00:28:35.902Z,11.70
2022-10-27T00:31:17.536Z,11.70
2022-10-27T00:33:46.605Z,11.70
2022-10-27T00:36:22.347Z,11.70
2022-10-27T00:38:50.718Z,11.90
2022-10-27T00:41:25.258Z,12.00
2022-10-27T00:43:52.618Z,12.00
2022-10-27T00:46:34.368Z,12.10
2022-10-27T00:49:11.128Z,12.10
2022-10-27T00:51:43.437Z,12.10
2022-10-27T00:54:12.967Z,12.10
2022-10-27T00:56:40.408Z,12.10
2022-10-27T00:59:07.431Z,12.00
2022-10-27T01:01:36.243Z,12.00
2022-10-27T01:04:06.379Z,12.00
2022-10-27T01:06:35.774Z,11.80
2022-10-27T01:09:04.194Z,11.80
2022-10-27T01:11:31.225Z,11.70
2022-10-27T01:13:58.672Z,11.60
2022-10-27T01:16:52.134Z,11.60
2022-10-27T01:20:04.309Z,11.60
2022-10-27T01:22:44.878Z,11.50
2022-10-27T01:25:53.215Z,11.50
2022-10-27T01:28:52.269Z,11.50
2022-10-27T01:31:25.463Z,11.50
2022-10-27T01:34:17.547Z,11.40
2022-10-27T01:36:55.923Z,11.40
2022-10-27T01:39:38.032Z,11.40
2022-10-27T01:42:12.973Z,11.30
2022-10-27T01:44:48.061Z,11.30
2022-10-27T01:47:16.080Z,11.20
2022-10-27T01:49:43.831Z,11.20
2022-10-27T01:52:50.107Z,11.10
2022-10-27T01:56:00.687Z,11.10
2022-10-27T01:58:55.490Z,11.10
2022-10-27T02:02:00.489Z,11.10
2022-10-27T02:04:56.851Z,11.10
2022-10-27T02:07:57.107Z,11.00
2022-10-27T02:10:40.215Z,11.00
2022-10-27T02:13:07.959Z,11.00
2022-10-27T02:15:50.734Z,11.00
2022-10-27T02:18:26.454Z,10.90
2022-10-27T02:21:00.578Z,10.80
2022-10-27T02:23:28.583Z,10.80
2022-10-27T02:26:26.774Z,10.80
2022-10-27T02:28:58.342Z,10.70
2022-10-27T02:31:33.682Z,10.80
2022-10-27T02:34:01.904Z,10.70
2022-10-27T02:36:29.644Z,10.70
2022-10-27T02:38:56.697Z,10.60
2022-10-27T02:41:23.909Z,10.60
2022-10-27T02:43:50.973Z,10.70
2022-10-27T02:46:17.999Z,10.70
2022-10-27T02:48:45.015Z,10.70
2022-10-27T02:51:12.055Z,10.60
2022-10-27T02:53:39.140Z,10.60
2022-10-27T02:56:07.462Z,10.60
2022-10-27T02:58:35.327Z,10.60
2022-10-27T03:01:02.486Z,10.50
2022-10-27T03:03:29.634Z,10.50
2022-10-27T03:05:56.659Z,10.50
2022-10-27T03:08:23.713Z,10.50
2022-10-27T03:10:50.716Z,10.50
2022-10-27T03:13:17.769Z,10.50
2022-10-27T03:15:46.545Z,10.40
2022-10-27T03:18:13.843Z,10.40
2022-10-27T03:20:40.877Z,10.40
2022-10-27T03:23:07.973Z,10.40
2022-10-27T03:25:37.240Z,10.40
2022-10-27T03:28:04.395Z,10.40
2022-10-27T03:30:31.457Z,10.40
2022-10-27T03:32:58.668Z,10.30
2022-10-27T03:35:25.768Z,10.30
2022-10-27T03:37:57.885Z,10.30
2022-10-27T03:40:25.191Z,10.40
2022-10-27T03:42:54.136Z,10.30
2022-10-27T03:45:21.201Z,10.30
2022-10-27T03:47:48.183Z,10.30
2022-10-27T03:50:15.393Z,10.30
2022-10-27T03:52:42.797Z,10.30
2022-10-27T03:55:09.899Z,10.20
2022-10-27T03:57:36.905Z,10.30
2022-10-27T04:00:04.347Z,10.30
2022-10-27T04:02:38.888Z,10.30
2022-10-27T04:05:06.462Z,10.20
2022-10-27T04:07:33.519Z,10.30
2022-10-27T04:10:00.581Z,10.30
2022-10-27T04:12:27.702Z,10.30
2022-10-27T04:14:54.744Z,10.30
2022-10-27T04:17:21.926Z,10.30
2022-10-27T04:19:49.236Z,10.30
2022-10-27T04:22:16.230Z,10.30
2022-10-27T04:24:43.275Z,10.30
2022-10-27T04:29:37.507Z,10.30
2022-10-27T04:32:04.703Z,10.20
2022-10-27T04:34:31.811Z,10.20
2022-10-27T04:36:58.865Z,10.10
2022-10-27T04:39:25.871Z,10.20
2022-10-27T04:41:52.898Z,10.10
2022-10-27T04:44:19.872Z,10.10
2022-10-27T04:46:46.848Z,10.10
2022-10-27T04:49:13.858Z,10.10
2022-10-27T04:51:41.146Z,10.10
2022-10-27T04:54:08.471Z,10.10
2022-10-27T04:56:35.458Z,10.10
2022-10-27T04:59:02.492Z,10.10
2022-10-27T05:01:29.647Z,10.10
2022-10-27T05:03:56.780Z,10.00
2022-10-27T05:06:23.799Z,10.00
2022-10-27T05:08:50.899Z,10.10
2022-10-27T05:11:18.007Z,10.10
2022-10-27T05:13:49.371Z,10.00
2022-10-27T05:16:16.630Z,9.90
2022-10-27T05:18:44.106Z,10.00
2022-10-27T05:21:11.271Z,9.90
2022-10-27T05:23:38.380Z,10.00
2022-10-27T05:26:05.884Z,9.90
2022-10-27T05:28:32.978Z,9.90
2022-10-27T05:31:01.056Z,9.90
2022-10-27T05:33:28.857Z,9.90
2022-10-27T05:35:55.919Z,9.90
2022-10-27T05:38:22.957Z,9.80
2022-10-27T05:40:56.511Z,9.80
2022-10-27T05:43:24.487Z,9.80
2022-10-27T05:45:52.227Z,9.80
2022-10-27T05:48:19.297Z,9.80
2022-10-27T05:50:46.398Z,9.80
2022-10-27T05:53:13.405Z,9.70
2022-10-27T05:55:40.479Z,9.80
2022-10-27T05:58:07.525Z,9.80
2022-10-27T06:00:37.507Z,9.80
2022-10-27T06:03:08.194Z,9.70
2022-10-27T06:05:37.365Z,9.70
2022-10-27T06:08:04.657Z,9.70
2022-10-27T06:10:31.747Z,9.70
2022-10-27T06:13:03.351Z,9.70
2022-10-27T06:15:32.016Z,9.80
2022-10-27T06:17:59.388Z,9.80
2022-10-27T06:20:27.050Z,9.80
2022-10-27T06:22:54.193Z,9.80
2022-10-27T06:25:21.472Z,9.80
2022-10-27T06:27:48.542Z,9.90
2022-10-27T06:30:15.773Z,9.90
2022-10-27T06:32:43.116Z,9.90
2022-10-27T06:35:11.180Z,9.90
2022-10-27T06:37:40.366Z,10.00
2022-10-27T06:40:08.588Z,10.00
2022-10-27T06:42:49.417Z,10.10
2022-10-27T06:45:22.942Z,10.20
2022-10-27T06:48:02.153Z,10.20
2022-10-27T06:50:29.969Z,10.20
2022-10-27T06:52:57.228Z,10.40
2022-10-27T06:55:24.330Z,10.50
2022-10-27T06:57:51.942Z,10.60
2022-10-27T07:00:19.639Z,10.70
2022-10-27T07:02:47.982Z,10.80
2022-10-27T07:05:15.462Z,10.80
2022-10-27T07:07:51.072Z,11.00
2022-10-27T07:10:20.140Z,11.20
2022-10-27T07:13:02.013Z,11.30
2022-10-27T07:15:33.068Z,11.40
2022-10-27T07:18:04.591Z,11.50
2022-10-27T07:20:34.863Z,11.60
2022-10-27T07:23:03.462Z,11.60
2022-10-27T07:25:32.259Z,11.70
2022-10-27T07:28:01.977Z,11.90
2022-10-27T07:30:39.097Z,12.00
2022-10-27T07:33:06.438Z,12.10
2022-10-27T07:35:34.196Z,12.20
2022-10-27T07:38:02.857Z,12.30
2022-10-27T07:40:32.816Z,12.50
2022-10-27T07:43:06.556Z,12.70
2022-10-27T07:45:34.505Z,12.80
2022-10-27T07:48:01.585Z,12.80
2022-10-27T07:50:33.049Z,12.90
2022-10-27T07:53:01.561Z,13.00
2022-10-27T07:55:31.424Z,13.10
2022-10-27T07:58:00.555Z,13.20
2022-10-27T08:00:28.839Z,13.40
2022-10-27T08:02:56.051Z,13.60
2022-10-27T08:05:23.093Z,13.60
2022-10-27T08:07:50.486Z,13.70
2022-10-27T08:10:17.726Z,13.70
2022-10-27T08:12:45.406Z,13.70
2022-10-27T08:15:13.069Z,13.70
2022-10-27T08:17:41.020Z,13.70
2022-10-27T08:20:10.166Z,13.70
2022-10-27T08:22:37.354Z,13.60
2022-10-27T08:25:07.524Z,13.50
2022-10-27T08:27:37.220Z,13.70
2022-10-27T08:30:05.057Z,13.80
2022-10-27T08:35:04.258Z,14.10
2022-10-27T08:37:31.295Z,14.10
2022-10-27T08:39:58.281Z,14.30
2022-10-27T08:42:55.634Z,14.30
2022-10-27T08:45:45.920Z,14.40
2022-10-27T08:48:13.313Z,14.60
2022-10-27T08:50:44.014Z,14.60
2022-10-27T08:53:16.009Z,14.70
2022-10-27T08:55:49.228Z,14.80
2022-10-27T09:01:52.973Z,14.90
2022-10-27T09:04:26.020Z,14.90
2022-10-27T09:07:29.822Z,14.90
2022-10-27T09:10:02.885Z,15.00
2022-10-27T09:13:25.502Z,15.00
2022-10-27T09:15:58.165Z,15.20
2022-10-27T09:18:35.452Z,15.20
2022-10-27T09:21:10.680Z,15.30
2022-10-27T09:23:45.187Z,15.40
2022-10-27T09:26:15.488Z,15.50
2022-10-27T09:28:49.225Z,15.70
2022-10-27T09:31:39.087Z,15.60
2022-10-27T09:34:50.077Z,15.70
2022-10-27T09:37:21.525Z,15.90
2022-10-27T09:39:53.679Z,15.80
2022-10-27T09:42:21.608Z,15.90
2022-10-27T09:45:02.411Z,16.00
2022-10-27T09:47:35.995Z,16.00
2022-10-27T09:50:08.812Z,16.00
2022-10-27T09:52:44.496Z,16.00
2022-10-27T09:55:12.406Z,16.10
2022-10-27T09:57:42.183Z,16.20
2022-10-27T10:00:27.428Z,16.30
2022-10-27T10:02:59.863Z,16.30
2022-10-27T10:05:31.436Z,16.30
2022-10-27T10:08:24.882Z,16.40
2022-10-27T10:11:01.446Z,16.40
2022-10-27T10:13:34.224Z,16.60
2022-10-27T10:16:13.239Z,16.60
2022-10-27T10:18:46.656Z,16.80
2022-10-27T10:21:14.991Z,16.70
2022-10-27T10:23:53.319Z,16.80
2022-10-27T10:26:24.591Z,16.80
2022-10-27T10:28:55.577Z,16.90
2022-10-27T10:31:27.397Z,16.90
2022-10-27T10:34:04.163Z,17.00
2022-10-27T10:36:41.560Z,17.00
2022-10-27T10:39:30.324Z,17.20
2022-10-27T10:42:18.035Z,17.30
2022-10-27T10:44:48.034Z,17.40
2022-10-27T10:47:29.219Z,17.50
2022-10-27T10:50:00.779Z,17.70
2022-10-27T10:52:37.563Z,17.70
2022-10-27T10:55:36.618Z,17.90
2022-10-27T10:58:04.191Z,18.30
2022-10-27T11:00:31.346Z,19.20
2022-10-27T11:03:27.563Z,20.00
2022-10-27T11:06:02.389Z,21.30
2022-10-27T11:08:59.626Z,22.40
2022-10-27T11:11:33.036Z,24.10
2022-10-27T11:14:06.963Z,25.10
2022-10-27T11:16:36.178Z,25.70
2022-10-27T11:19:18.359Z,26.80
2022-10-27T11:21:58.921Z,27.80
2022-10-27T11:25:06.996Z,27.30
2022-10-27T11:27:50.107Z,28.20
2022-10-27T11:30:24.928Z,28.40
2022-10-27T11:33:30.575Z,29.40
2022-10-27T11:36:15.107Z,31.10
2022-10-27T11:39:09.257Z,31.50
2022-10-27T11:41:48.269Z,31.90
2022-10-27T11:44:15.393Z,32.70
2022-10-27T11:46:58.932Z,32.30
2022-10-27T11:49:42.399Z,32.90
2022-10-27T11:52:17.831Z,33.70
2022-10-27T11:54:46.953Z,34.00
2022-10-27T11:57:42.553Z,34.80
2022-10-27T12:00:24.086Z,35.30
2022-10-27T12:03:21.886Z,33.80
2022-10-27T12:05:59.055Z,34.30
2022-10-27T12:08:39.024Z,35.00
2022-10-27T12:11:49.813Z,35.10
2022-10-27T12:15:00.039Z,35.00
2022-10-27T12:17:52.612Z,35.00
2022-10-27T12:20:41.675Z,36.40
2022-10-27T12:23:45.340Z,36.40
2022-10-27T12:26:27.566Z,36.10
2022-10-27T12:28:57.271Z,35.10
2022-10-27T12:31:29.514Z,35.60
2022-10-27T12:33:59.589Z,34.70
2022-10-27T12:36:48.064Z,34.00
2022-10-27T12:39:51.291Z,34.50
2022-10-27T12:42:50.876Z,35.00
2022-10-27T12:45:43.585Z,33.80
2022-10-27T12:48:43.707Z,34.20
2022-10-27T12:51:35.479Z,34.90
2022-10-27T12:58:22.562Z,34.50
2022-10-27T13:01:30.483Z,33.60
2022-10-27T13:04:22.216Z,33.80
2022-10-27T13:07:34.707Z,33.10
2022-10-27T13:10:54.320Z,33.70
2022-10-27T13:13:39.832Z,33.40
2022-10-27T13:16:36.303Z,33.30
2022-10-27T13:19:24.227Z,32.60
2022-10-27T13:22:09.283Z,32.60
2022-10-27T13:24:51.478Z,32.60
2022-10-27T13:28:11.330Z,32.90
2022-10-27T13:30:43.174Z,32.90
2022-10-27T13:33:34.231Z,32.80
2022-10-27T13:36:23.157Z,32.00
2022-10-27T13:39:13.602Z,31.30
2022-10-27T13:42:00.856Z,32.40
2022-10-27T13:44:34.698Z,32.70
2022-10-27T13:47:04.742Z,33.30
2022-10-27T13:49:40.648Z,33.90
2022-10-27T13:52:17.388Z,34.20
2022-10-27T13:55:23.928Z,34.50
2022-10-27T13:58:21.054Z,34.90
2022-10-27T14:01:23.238Z,35.10
2022-10-27T14:04:21.113Z,34.80
2022-10-27T14:06:57.489Z,34.70
2022-10-27T14:09:32.986Z,35.30
2022-10-27T14:12:13.960Z,35.00
2022-10-27T14:14:41.928Z,34.60
2022-10-27T14:17:21.314Z,35.00
2022-10-27T14:19:54.869Z,34.90
2022-10-27T14:22:37.546Z,34.80
2022-10-27T14:25:29.671Z,34.70
2022-10-27T14:28:20.651Z,34.80
2022-10-27T14:31:19.097Z,34.50
2022-10-27T14:33:47.655Z,34.30
2022-10-27T14:36:33.555Z,33.40
2022-10-27T14:39:37.584Z,31.40
2022-10-27T14:42:31.285Z,29.50
2022-10-27T14:45:20.901Z,27.50
2022-10-27T14:48:03.873Z,26.10
2022-10-27T14:50:51.626Z,25.10
2022-10-27T14:53:35.969Z,24.50
2022-10-27T14:56:16.921Z,23.80
2022-10-27T14:59:21.630Z,23.40
2022-10-27T15:01:49.589Z,23.00
2022-10-27T15:04:28.396Z,22.70
2022-10-27T15:07:02.979Z,22.40
2022-10-27T15:09:38.544Z,22.20
2022-10-27T15:12:31.356Z,21.90
2022-10-27T15:15:03.901Z,21.60
2022-10-27T15:17:36.385Z,21.20
2022-10-27T15:20:06.797Z,21.00
2022-10-27T15:22:35.667Z,20.80
2022-10-27T15:25:05.028Z,20.50
2022-10-27T15:27:33.398Z,20.40
2022-10-27T15:30:01.872Z,20.10
2022-10-27T15:32:38.888Z,19.90
2022-10-27T15:35:28.368Z,19.70
2022-10-27T15:37:56.827Z,19.60
2022-10-27T15:40:37.694Z,19.40
2022-10-27T15:43:25.379Z,19.30
2022-10-27T15:46:07.619Z,19.10
2022-10-27T15:48:40.156Z,18.90
2022-10-27T15:51:10.426Z,18.70
2022-10-27T15:53:46.430Z,18.60
2022-10-27T15:56:22.928Z,18.50
2022-10-27T15:59:20.048Z,18.40
2022-10-27T16:01:52.599Z,18.20
2022-10-27T16:04:40.159Z,18.10
2022-10-27T16:07:13.248Z,18.00
2022-10-27T16:09:42.700Z,17.80
2022-10-27T16:12:33.307Z,17.70
2022-10-27T16:15:05.347Z,17.60
2022-10-27T16:17:45.032Z,17.60
2022-10-27T16:20:20.965Z,17.50
2022-10-27T16:22:48.776Z,17.50
2022-10-27T16:25:18.900Z,17.40
2022-10-27T16:27:45.965Z,17.40
2022-10-27T16:30:21.249Z,17.30
2022-10-27T16:32:54.619Z,17.30
2022-10-27T16:35:21.838Z,17.20
2022-10-27T16:37:50.179Z,17.10
2022-10-27T16:40:18.275Z,16.90
2022-10-27T16:42:50.484Z,16.80
2022-10-27T16:45:20.678Z,16.60
2022-10-27T16:47:52.264Z,16.60
2022-10-27T16:50:20.379Z,16.50
2022-10-27T16:52:55.676Z,16.40
2022-10-27T16:55:24.154Z,16.40
2022-10-27T16:57:55.885Z,16.30
2022-10-27T17:00:23.397Z,16.20
2022-10-27T17:02:50.961Z,16.20
2022-10-27T17:05:21.609Z,16.20
2022-10-27T17:07:50.482Z,16.10
2022-10-27T17:10:17.843Z,16.00
2022-10-27T17:12:44.976Z,16.00
2022-10-27T17:15:12.108Z,15.90
2022-10-27T17:17:39.341Z,15.80
2022-10-27T17:20:06.977Z,15.70
2022-10-27T17:22:34.058Z,15.70
2022-10-27T17:25:01.001Z,15.60
2022-10-27T17:27:28.131Z,15.60
2022-10-27T17:29:55.134Z,15.60
2022-10-27T17:32:22.133Z,15.50
2022-10-27T17:34:49.132Z,15.40
2022-10-27T17:37:16.216Z,15.40
2022-10-27T17:39:43.199Z,15.30
2022-10-27T17:42:10.596Z,15.30
2022-10-27T17:44:37.684Z,15.20
2022-10-27T17:47:05.057Z,15.10
2022-10-27T17:49:32.411Z,15.10
2022-10-27T17:51:59.655Z,15.00
2022-10-27T17:54:26.672Z,14.90
2022-10-27T17:56:53.785Z,14.80
2022-10-27T17:59:20.894Z,14.80
2022-10-27T18:01:49.848Z,14.70
2022-10-27T18:04:17.298Z,14.60
2022-10-27T18:06:44.555Z,14.50
2022-10-27T18:09:12.992Z,14.50
2022-10-27T18:11:42.077Z,14.40
2022-10-27T18:14:15.300Z,14.40
2022-10-27T18:16:44.274Z,14.30
2022-10-27T18:19:13.825Z,14.20
2022-10-27T18:21:44.098Z,14.20
2022-10-27T18:24:13.601Z,14.10
2022-10-27T18:26:43.214Z,14.00
2022-10-27T18:29:14.375Z,13.90
2022-10-27T18:31:42.195Z,13.90
2022-10-27T18:34:12.238Z,13.90
2022-10-27T18:36:41.546Z,13.90
2022-10-27T18:39:15.714Z,13.90
2022-10-27T18:41:43.882Z,13.80
2022-10-27T18:44:11.496Z,13.80
2022-10-27T18:46:39.166Z,13.70
2022-10-27T18:49:09.422Z,13.70
2022-10-27T18:51:43.131Z,13.70
2022-10-27T18:54:13.463Z,13.60
2022-10-27T18:56:40.681Z,13.50
2022-10-27T18:59:08.385Z,13.50
2022-10-27T19:01:36.749Z,13.50
2022-10-27T19:04:08.436Z,13.40
2022-10-27T19:06:37.268Z,13.50
2022-10-27T19:09:05.614Z,13.40
2022-10-27T19:11:36.267Z,13.30
2022-10-27T19:14:04.382Z,13.40
2022-10-27T19:16:31.706Z,13.30
2022-10-27T19:19:00.171Z,13.20
2022-10-27T19:21:28.930Z,13.20
2022-10-27T19:23:59.708Z,13.20
2022-10-27T19:26:30.645Z,13.20
2022-10-27T19:28:58.766Z,13.10
2022-10-27T19:31:30.359Z,13.00
2022-10-27T19:33:58.580Z,13.00
2022-10-27T19:36:30.528Z,12.90
2022-10-27T19:38:59.664Z,12.80
2022-10-27T19:41:31.557Z,12.70
2022-10-27T19:43:59.205Z,12.60
2022-10-27T19:46:28.456Z,12.50
2022-10-27T19:48:58.822Z,12.50
2022-10-27T19:51:32.296Z,12.50
2022-10-27T19:54:00.209Z,12.50
2022-10-27T19:56:32.318Z,12.60
2022-10-27T19:59:03.275Z,12.60
2022-10-27T20:01:34.446Z,12.60
2022-10-27T20:04:04.021Z,12.60
2022-10-27T20:06:31.308Z,12.60
2022-10-27T20:08:58.652Z,12.60
2022-10-27T20:11:29.596Z,12.70
2022-10-27T20:13:57.316Z,12.60
2022-10-27T20:16:28.891Z,12.60
2022-10-27T20:19:01.100Z,12.60
2022-10-27T20:21:28.729Z,12.60
2022-10-27T20:23:55.882Z,12.60
2022-10-27T20:26:28.865Z,12.60
2022-10-27T20:29:00.547Z,12.60
2022-10-27T20:31:28.871Z,12.60
2022-10-27T20:33:56.614Z,12.60
2022-10-27T20:36:24.237Z,12.60
2022-10-27T20:38:52.584Z,12.60
2022-10-27T20:41:23.282Z,12.60
2022-10-27T20:43:55.987Z,12.60
2022-10-27T20:46:28.382Z,12.70
2022-10-27T20:48:57.307Z,12.70
2022-10-27T20:51:27.805Z,12.70
2022-10-27T20:53:55.245Z,12.70
2022-10-27T20:56:37.172Z,12.70
2022-10-27T20:59:06.241Z,12.70
2022-10-27T21:01:41.257Z,12.70
2022-10-27T21:04:14.629Z,12.70
2022-10-27T21:06:47.632Z,12.70
2022-10-27T21:09:17.865Z,12.70
2022-10-27T21:11:46.228Z,12.60
2022-10-27T21:14:13.841Z,12.60
2022-10-27T21:16:41.534Z,12.60
2022-10-27T21:19:10.657Z,12.80
2022-10-27T21:21:38.704Z,12.80
2022-10-27T21:24:06.461Z,12.80
2022-10-27T21:26:33.854Z,12.80
2022-10-27T21:29:01.978Z,12.80
2022-10-27T21:31:31.354Z,12.80
2022-10-27T21:34:03.464Z,12.80
2022-10-27T21:36:31.081Z,12.80
2022-10-27T21:38:58.475Z,12.80
2022-10-27T21:41:25.723Z,12.80
2022-10-27T21:43:55.917Z,12.80
2022-10-27T21:46:27.108Z,12.80
2022-10-27T21:48:59.617Z,12.80
2022-10-27T21:51:27.781Z,12.90
2022-10-27T21:54:01.862Z,12.90
2022-10-27T21:56:35.087Z,12.90
2022-10-27T21:59:02.616Z,13.00
2022-10-27T22:01:30.440Z,13.00
2022-10-27T22:03:58.113Z,13.00
2022-10-27T22:06:31.644Z,13.10
2022-10-27T22:08:59.492Z,13.10
2022-10-27T22:11:30.698Z,13.10
2022-10-27T22:14:00.719Z,13.10
2022-10-27T22:16:29.874Z,13.10
2022-10-27T22:19:04.245Z,13.10
2022-10-27T22:21:35.337Z,13.10
2022-10-27T22:24:02.626Z,13.10
2022-10-27T22:26:31.351Z,13.00
2022-10-27T22:28:58.455Z,13.10
2022-10-27T22:31:30.551Z,13.10
2022-10-27T22:33:59.272Z,13.10
2022-10-27T22:36:26.997Z,13.10
2022-10-27T22:39:08.004Z,13.10
2022-10-27T22:41:35.583Z,13.10
2022-10-27T22:44:02.809Z,13.10
2022-10-27T22:46:32.292Z,13.10
2022-10-27T22:49:00.234Z,13.10
2022-10-27T22:51:28.669Z,13.00
2022-10-27T22:53:57.740Z,13.00
2022-10-27T22:56:32.130Z,13.00
2022-10-27T22:59:03.798Z,13.00
2022-10-27T23:01:35.226Z,13.00
2022-10-27T23:04:04.741Z,13.00
2022-10-27T23:06:35.640Z,12.90
2022-10-27T23:09:06.623Z,13.00
2022-10-27T23:11:36.360Z,13.00
2022-10-27T23:14:04.997Z,13.00
2022-10-27T23:16:33.406Z,13.00
2022-10-27T23:19:01.232Z,13.00
2022-10-27T23:21:29.033Z,13.00
2022-10-27T23:23:58.183Z,12.90
2022-10-27T23:26:35.823Z,12.90
2022-10-27T23:29:07.404Z,12.90
2022-10-27T23:31:35.193Z,12.80
2022-10-27T23:34:05.940Z,12.80
2022-10-27T23:36:35.123Z,12.80
2022-10-27T23:39:02.735Z,12.80
2022-10-27T23:41:29.893Z,12.70
2022-10-27T23:43:59.149Z,12.70
2022-10-27T23:46:28.128Z,12.80
2022-10-27T23:48:55.465Z,12.70
2022-10-27T23:51:23.331Z,12.70
2022-10-27T23:53:51.461Z,12.70
2022-10-27T23:56:18.911Z,12.80
2022-10-27T23:58:46.386Z,12.80
